sensor_id;sensor_type;location;lat;lon;timestamp;pressure;altitude;pressure_sealevel;temperature;humidity
65716;BME280;63484;52.054;8.518;2023-02-10T00:03:02;102500.25;;;3.39;78.20
65716;BME280;63484;52.054;8.518;2023-02-10T00:08:05;102495.06;;;3.39;78.59
65716;BME280;63484;52.054;8.518;2023-02-10T00:13:06;102508.03;;;3.44;79.04
65716;BME280;63484;52.054;8.518;2023-02-10T00:18:08;102502.84;;;3.45;79.13
65716;BME280;63484;52.054;8.518;2023-02-10T00:23:11;102504.59;;;3.46;79.45
65716;BME280;63484;52.054;8.518;2023-02-10T00:28:12;102497.66;;;3.48;79.74
65716;BME280;63484;52.054;8.518;2023-02-10T00:33:14;102512.38;;;3.49;80.26
65716;BME280;63484;52.054;8.518;2023-02-10T00:38:16;102519.28;;;3.52;79.55
65716;BME280;63484;52.054;8.518;2023-02-10T00:43:20;102508.03;;;3.53;80.37
65716;BME280;63484;52.054;8.518;2023-02-10T00:48:21;102516.69;;;3.58;80.43
65716;BME280;63484;52.054;8.518;2023-02-10T00:53:24;102521.91;;;3.55;80.97
65716;BME280;63484;52.054;8.518;2023-02-10T00:58:26;102527.09;;;3.56;81.24
65716;BME280;63484;52.054;8.518;2023-02-10T01:03:29;102536.59;;;3.63;81.90
65716;BME280;63484;52.054;8.518;2023-02-10T01:08:32;102531.38;;;3.65;82.20
65716;BME280;63484;52.054;8.518;2023-02-10T01:13:35;102522.75;;;3.61;82.51
65716;BME280;63484;52.054;8.518;2023-02-10T01:18:38;102521.88;;;3.64;82.47
65716;BME280;63484;52.054;8.518;2023-02-10T01:23:40;102521.91;;;3.55;83.01
65716;BME280;63484;52.054;8.518;2023-02-10T01:28:42;102527.97;;;3.51;83.69
65716;BME280;63484;52.054;8.518;2023-02-10T01:33:45;102534.91;;;3.44;84.17
65716;BME280;63484;52.054;8.518;2023-02-10T01:38:48;102533.19;;;3.46;84.38
65716;BME280;63484;52.054;8.518;2023-02-10T01:43:59;102530.59;;;3.42;84.58
65716;BME280;63484;52.054;8.518;2023-02-10T01:49:02;102534.06;;;3.26;85.70
65716;BME280;63484;52.054;8.518;2023-02-10T01:54:11;102534.06;;;3.14;86.12
65716;BME280;63484;52.054;8.518;2023-02-10T01:59:15;102526.25;;;3.02;87.30
65716;BME280;63484;52.054;8.518;2023-02-10T02:04:17;102535.78;;;2.80;87.87
65716;BME280;63484;52.054;8.518;2023-02-10T02:09:19;102540.94;;;2.60;89.14
65716;BME280;63484;52.054;8.518;2023-02-10T02:14:29;102535.69;;;2.38;89.83
65716;BME280;63484;52.054;8.518;2023-02-10T02:25:46;102535.56;;;2.05;91.31
65716;BME280;63484;52.054;8.518;2023-02-10T02:31:07;102534.63;;;1.88;91.70
65716;BME280;63484;52.054;8.518;2023-02-10T02:36:18;102545.78;;;1.70;91.97
65716;BME280;63484;52.054;8.518;2023-02-10T02:41:23;102546.53;;;1.56;92.50
65716;BME280;63484;52.054;8.518;2023-02-10T02:46:35;102545.63;;;1.49;93.70
65716;BME280;63484;52.054;8.518;2023-02-10T02:51:50;102549.91;;;1.41;94.09
65716;BME280;63484;52.054;8.518;2023-02-10T02:57:02;102538.59;;;1.33;94.38
65716;BME280;63484;52.054;8.518;2023-02-10T03:02:08;102542.03;;;1.27;95.02
65716;BME280;63484;52.054;8.518;2023-02-10T03:07:13;102547.31;;;1.41;97.25
65716;BME280;63484;52.054;8.518;2023-02-10T03:12:15;102535.22;;;1.43;97.51
65716;BME280;63484;52.054;8.518;2023-02-10T03:17:17;102520.69;;;1.72;98.51
65716;BME280;63484;52.054;8.518;2023-02-10T03:22:19;102514.78;;;1.91;99.06
65716;BME280;63484;52.054;8.518;2023-02-10T03:27:21;102511.44;;;2.27;99.69
65716;BME280;63484;52.054;8.518;2023-02-10T03:32:22;102520.19;;;2.62;99.11
65716;BME280;63484;52.054;8.518;2023-02-10T03:37:25;102513.25;;;2.77;98.26
65716;BME280;63484;52.054;8.518;2023-02-10T03:42:26;102528.88;;;2.93;97.63
65716;BME280;63484;52.054;8.518;2023-02-10T03:47:28;102524.53;;;3.05;96.60
65716;BME280;63484;52.054;8.518;2023-02-10T03:52:30;102541.88;;;3.08;96.08
65716;BME280;63484;52.054;8.518;2023-02-10T03:57:32;102545.34;;;3.11;95.82
65716;BME280;63484;52.054;8.518;2023-02-10T04:02:33;102533.19;;;3.15;95.66
65716;BME280;63484;52.054;8.518;2023-02-10T04:07:36;102532.31;;;3.28;94.17
65716;BME280;63484;52.054;8.518;2023-02-10T04:12:38;102543.59;;;3.24;94.34
65716;BME280;63484;52.054;8.518;2023-02-10T04:17:39;102541.84;;;3.18;94.51
65716;BME280;63484;52.054;8.518;2023-02-10T04:22:42;102552.25;;;3.14;94.89
65716;BME280;63484;52.054;8.518;2023-02-10T04:27:44;102544.44;;;3.00;94.83
65716;BME280;63484;52.054;8.518;2023-02-10T04:32:45;102542.72;;;2.99;96.10
65716;BME280;63484;52.054;8.518;2023-02-10T04:37:48;102540.13;;;2.93;96.13
65716;BME280;63484;52.054;8.518;2023-02-10T04:42:49;102547.91;;;2.85;96.74
65716;BME280;63484;52.054;8.518;2023-02-10T04:47:51;102540.09;;;2.88;97.27
65716;BME280;63484;52.054;8.518;2023-02-10T04:52:53;102547.88;;;2.88;97.10
65716;BME280;63484;52.054;8.518;2023-02-10T04:57:55;102546.16;;;2.86;96.94
65716;BME280;63484;52.054;8.518;2023-02-10T05:02:56;102550.50;;;2.82;96.91
65716;BME280;63484;52.054;8.518;2023-02-10T05:07:59;102540.97;;;2.80;97.04
65716;BME280;63484;52.054;8.518;2023-02-10T05:13:00;102541.84;;;2.83;97.27
65716;BME280;63484;52.054;8.518;2023-02-10T05:18:02;102540.97;;;2.92;96.90
65716;BME280;63484;52.054;8.518;2023-02-10T05:23:05;102552.25;;;2.93;96.81
65716;BME280;63484;52.054;8.518;2023-02-10T05:28:06;102553.13;;;2.93;96.41
65716;BME280;63484;52.054;8.518;2023-02-10T05:33:08;102566.09;;;3.02;96.23
65716;BME280;63484;52.054;8.518;2023-02-10T05:38:12;102572.16;;;3.15;95.71
65716;BME280;63484;52.054;8.518;2023-02-10T05:43:13;102573.03;;;3.09;95.86
65716;BME280;63484;52.054;8.518;2023-02-10T05:48:14;102584.31;;;3.13;95.93
65716;BME280;63484;52.054;8.518;2023-02-10T05:53:17;102579.09;;;3.16;95.47
65716;BME280;63484;52.054;8.518;2023-02-10T05:58:19;102587.75;;;3.15;95.61
65716;BME280;63484;52.054;8.518;2023-02-10T06:03:21;102606.81;;;3.18;95.70
65716;BME280;63484;52.054;8.518;2023-02-10T06:08:23;102599.91;;;3.20;95.97
65716;BME280;63484;52.054;8.518;2023-02-10T06:13:26;102614.63;;;3.14;96.16
65716;BME280;63484;52.054;8.518;2023-02-10T06:18:28;102617.22;;;3.17;96.10
65716;BME280;63484;52.054;8.518;2023-02-10T06:23:31;102624.13;;;3.13;96.00
65716;BME280;63484;52.054;8.518;2023-02-10T06:28:32;102631.03;;;3.10;96.50
65716;BME280;63484;52.054;8.518;2023-02-10T06:33:34;102648.38;;;3.11;96.25
65716;BME280;63484;52.054;8.518;2023-02-10T06:38:37;102655.31;;;3.13;95.77
65716;BME280;63484;52.054;8.518;2023-02-10T06:43:39;102657.03;;;3.08;96.15
65716;BME280;63484;52.054;8.518;2023-02-10T06:48:40;102660.50;;;3.03;96.66
65716;BME280;63484;52.054;8.518;2023-02-10T06:53:43;102654.44;;;3.10;97.33
65716;BME280;63484;52.054;8.518;2023-02-10T06:58:45;102659.66;;;3.14;97.29
65716;BME280;63484;52.054;8.518;2023-02-10T07:03:46;102656.19;;;3.05;97.80
65716;BME280;63484;52.054;8.518;2023-02-10T07:08:49;102651.00;;;3.11;98.35
65716;BME280;63484;52.054;8.518;2023-02-10T07:13:51;102652.75;;;3.22;98.17
65716;BME280;63484;52.054;8.518;2023-02-10T07:18:52;102653.59;;;3.17;97.95
65716;BME280;63484;52.054;8.518;2023-02-10T07:23:55;102664.84;;;3.23;98.50
65716;BME280;63484;52.054;8.518;2023-02-10T07:28:57;102659.69;;;3.38;97.54
65716;BME280;63484;52.054;8.518;2023-02-10T07:33:58;102654.50;;;3.43;97.55
65716;BME280;63484;52.054;8.518;2023-02-10T07:39:01;102647.56;;;3.49;96.53
65716;BME280;63484;52.054;8.518;2023-02-10T07:44:03;102652.75;;;3.66;96.02
65716;BME280;63484;52.054;8.518;2023-02-10T07:49:04;102655.34;;;3.84;94.67
65716;BME280;63484;52.054;8.518;2023-02-10T07:54:07;102662.28;;;3.83;93.61
65716;BME280;63484;52.054;8.518;2023-02-10T07:59:08;102657.94;;;3.72;94.69
65716;BME280;63484;52.054;8.518;2023-02-10T08:04:10;102670.09;;;3.76;93.71
65716;BME280;63484;52.054;8.518;2023-02-10T08:09:13;102672.69;;;3.86;93.38
65716;BME280;63484;52.054;8.518;2023-02-10T08:14:17;102682.25;;;3.87;93.16
65716;BME280;63484;52.054;8.518;2023-02-10T08:19:18;102679.63;;;3.83;94.04
65716;BME280;63484;52.054;8.518;2023-02-10T08:24:21;102684.81;;;3.80;93.77
65716;BME280;63484;52.054;8.518;2023-02-10T08:29:23;102691.75;;;3.75;94.16
65716;BME280;63484;52.054;8.518;2023-02-10T08:34:24;102696.09;;;3.73;94.74
65716;BME280;63484;52.054;8.518;2023-02-10T08:39:28;102690.03;;;3.86;94.76
65716;BME280;63484;52.054;8.518;2023-02-10T08:44:30;102696.94;;;3.97;93.80
65716;BME280;63484;52.054;8.518;2023-02-10T08:49:32;102702.16;;;3.91;93.72
65716;BME280;63484;52.054;8.518;2023-02-10T08:54:35;102704.78;;;3.87;94.21
65716;BME280;63484;52.054;8.518;2023-02-10T08:59:36;102710.81;;;3.86;93.94
65716;BME280;63484;52.054;8.518;2023-02-10T09:04:38;102701.31;;;3.82;93.59
65716;BME280;63484;52.054;8.518;2023-02-10T09:09:42;102703.91;;;3.91;93.54
65716;BME280;63484;52.054;8.518;2023-02-10T09:14:43;102710.84;;;3.95;93.58
65716;BME280;63484;52.054;8.518;2023-02-10T09:19:45;102710.84;;;3.95;92.81
65716;BME280;63484;52.054;8.518;2023-02-10T09:24:48;102708.22;;;4.07;92.71
65716;BME280;63484;52.054;8.518;2023-02-10T09:29:52;102691.75;;;4.23;90.68
65716;BME280;63484;52.054;8.518;2023-02-10T09:34:53;102708.97;;;4.57;90.30
65716;BME280;63484;52.054;8.518;2023-02-10T09:39:56;102711.38;;;5.11;86.82
65716;BME280;63484;52.054;8.518;2023-02-10T09:45:04;102707.00;;;5.13;85.40
65716;BME280;63484;52.054;8.518;2023-02-10T09:50:30;102719.16;;;5.14;85.04
65716;BME280;63484;52.054;8.518;2023-02-10T09:55:38;102726.13;;;5.14;84.30
65716;BME280;63484;52.054;8.518;2023-02-10T10:00:42;102734.84;;;5.08;84.72
65716;BME280;63484;52.054;8.518;2023-02-10T10:05:50;102740.97;;;5.00;84.71
65716;BME280;63484;52.054;8.518;2023-02-10T10:11:00;102735.81;;;4.80;85.53
65716;BME280;63484;52.054;8.518;2023-02-10T10:16:17;102738.47;;;4.71;86.39
65716;BME280;63484;52.054;8.518;2023-02-10T10:21:26;102730.63;;;4.76;86.40
65716;BME280;63484;52.054;8.518;2023-02-10T10:26:45;102734.09;;;4.81;86.43
65716;BME280;63484;52.054;8.518;2023-02-10T10:31:53;102731.38;;;5.03;84.91
65716;BME280;63484;52.054;8.518;2023-02-10T10:36:58;102726.00;;;5.32;84.79
65716;BME280;63484;52.054;8.518;2023-02-10T10:42:15;102744.38;;;5.12;84.42
65716;BME280;63484;52.054;8.518;2023-02-10T10:47:21;102740.91;;;5.15;84.84
65716;BME280;63484;52.054;8.518;2023-02-10T10:52:30;102739.84;;;5.49;83.95
65716;BME280;63484;52.054;8.518;2023-02-10T10:57:34;102730.97;;;5.69;82.43
65716;BME280;63484;52.054;8.518;2023-02-10T11:02:36;102725.75;;;5.69;82.81
65716;BME280;63484;52.054;8.518;2023-02-10T11:07:39;102721.31;;;5.90;81.94
65716;BME280;63484;52.054;8.518;2023-02-10T11:12:44;102709.63;;;6.27;80.45
65716;BME280;63484;52.054;8.518;2023-02-10T11:17:48;102682.09;;;6.76;77.85
65716;BME280;63484;52.054;8.518;2023-02-10T11:22:55;102689.28;;;6.57;77.96
65716;BME280;63484;52.054;8.518;2023-02-10T11:28:01;102678.91;;;6.50;78.65
65716;BME280;63484;52.054;8.518;2023-02-10T11:33:05;102664.00;;;6.58;78.76
65716;BME280;63484;52.054;8.518;2023-02-10T11:38:17;102675.16;;;6.72;77.50
65716;BME280;63484;52.054;8.518;2023-02-10T11:43:25;102659.94;;;7.01;76.23
65716;BME280;63484;52.054;8.518;2023-02-10T11:48:28;102661.19;;;7.35;73.68
65716;BME280;63484;52.054;8.518;2023-02-10T11:53:33;102659.41;;;7.37;72.20
65716;BME280;63484;52.054;8.518;2023-02-10T11:58:52;102665.81;;;7.18;73.09
65716;BME280;63484;52.054;8.518;2023-02-10T12:04:03;102668.13;;;7.39;72.12
65716;BME280;63484;52.054;8.518;2023-02-10T12:09:19;102654.66;;;7.62;70.74
65716;BME280;63484;52.054;8.518;2023-02-10T12:14:36;102650.31;;;7.59;70.25
65716;BME280;63484;52.054;8.518;2023-02-10T12:19:50;102650.88;;;7.26;71.04
65716;BME280;63484;52.054;8.518;2023-02-10T12:25:12;102644.09;;;7.10;71.48
65716;BME280;63484;52.054;8.518;2023-02-10T12:30:28;102628.56;;;7.01;71.66
65716;BME280;63484;52.054;8.518;2023-02-10T12:35:41;102622.41;;;7.05;70.81
65716;BME280;63484;52.054;8.518;2023-02-10T12:40:51;102623.16;;;7.13;71.04
65716;BME280;63484;52.054;8.518;2023-02-10T12:46:06;102613.97;;;7.43;69.98
65716;BME280;63484;52.054;8.518;2023-02-10T12:51:34;102608.44;;;7.59;69.00
65716;BME280;63484;52.054;8.518;2023-02-10T12:56:41;102590.78;;;7.70;68.38
65716;BME280;63484;52.054;8.518;2023-02-10T13:01:47;102585.97;;;7.48;68.35
65716;BME280;63484;52.054;8.518;2023-02-10T13:06:53;102587.78;;;7.43;67.56
65716;BME280;63484;52.054;8.518;2023-02-10T13:12:05;102579.75;;;7.55;67.04
65716;BME280;63484;52.054;8.518;2023-02-10T13:17:10;102573.50;;;7.63;66.39
65716;BME280;63484;52.054;8.518;2023-02-10T13:22:16;102573.00;;;7.42;66.97
65716;BME280;63484;52.054;8.518;2023-02-10T13:27:26;102580.91;;;7.37;67.37
65716;BME280;63484;52.054;8.518;2023-02-10T13:32:43;102575.75;;;7.34;67.58
65716;BME280;63484;52.054;8.518;2023-02-10T13:37:50;102573.88;;;7.42;67.69
65716;BME280;63484;52.054;8.518;2023-02-10T13:42:55;102558.25;;;7.36;67.94
65716;BME280;63484;52.054;8.518;2023-02-10T13:48:00;102546.69;;;7.48;67.74
65716;BME280;63484;52.054;8.518;2023-02-10T13:53:05;102539.59;;;7.54;67.45
65716;BME280;63484;52.054;8.518;2023-02-10T13:58:26;102541.38;;;7.52;67.66
65716;BME280;63484;52.054;8.518;2023-02-10T14:03:31;102547.38;;;7.59;67.39
65716;BME280;63484;52.054;8.518;2023-02-10T14:08:36;102543.09;;;7.55;67.51
65716;BME280;63484;52.054;8.518;2023-02-10T14:13:37;102538.41;;;7.72;65.94
65716;BME280;63484;52.054;8.518;2023-02-10T14:18:43;102541.47;;;7.93;65.13
65716;BME280;63484;52.054;8.518;2023-02-10T14:23:49;102535.63;;;7.81;65.10
65716;BME280;63484;52.054;8.518;2023-02-10T14:28:53;102527.03;;;7.74;65.26
65716;BME280;63484;52.054;8.518;2023-02-10T14:33:58;102531.19;;;7.84;64.22
65716;BME280;63484;52.054;8.518;2023-02-10T14:39:00;102528.97;;;7.65;64.50
65716;BME280;63484;52.054;8.518;2023-02-10T14:44:03;102510.25;;;7.39;65.73
65716;BME280;63484;52.054;8.518;2023-02-10T14:49:10;102512.13;;;7.31;66.39
65716;BME280;63484;52.054;8.518;2023-02-10T14:54:15;102510.75;;;7.08;67.41
65716;BME280;63484;52.054;8.518;2023-02-10T14:59:22;102505.50;;;7.10;67.55
65716;BME280;63484;52.054;8.518;2023-02-10T15:04:26;102511.06;;;6.92;68.02
65716;BME280;63484;52.054;8.518;2023-02-10T15:09:31;102495.28;;;6.96;67.92
65716;BME280;63484;52.054;8.518;2023-02-10T15:14:38;102500.63;;;6.90;68.32
65716;BME280;63484;52.054;8.518;2023-02-10T15:19:55;102506.91;;;6.79;68.28
65716;BME280;63484;52.054;8.518;2023-02-10T15:24:56;102488.72;;;6.70;68.44
65716;BME280;63484;52.054;8.518;2023-02-10T15:30:05;102493.25;;;6.59;68.93
65716;BME280;63484;52.054;8.518;2023-02-10T15:35:12;102480.28;;;6.53;69.18
65716;BME280;63484;52.054;8.518;2023-02-10T15:40:18;102483.59;;;6.64;68.86
65716;BME280;63484;52.054;8.518;2023-02-10T15:45:20;102467.53;;;6.32;70.33
65716;BME280;63484;52.054;8.518;2023-02-10T15:50:23;102484.19;;;6.23;70.62
65716;BME280;63484;52.054;8.518;2023-02-10T15:55:28;102478.31;;;6.09;71.18
65716;BME280;63484;52.054;8.518;2023-02-10T16:00:32;102481.88;;;6.01;72.03
65716;BME280;63484;52.054;8.518;2023-02-10T16:05:37;102469.75;;;5.97;71.57
65716;BME280;63484;52.054;8.518;2023-02-10T16:10:39;102460.34;;;5.81;72.38
65716;BME280;63484;52.054;8.518;2023-02-10T16:15:42;102476.78;;;5.90;72.12
65716;BME280;63484;52.054;8.518;2023-02-10T16:20:46;102468.22;;;5.78;72.86
65716;BME280;63484;52.054;8.518;2023-02-10T16:25:48;102460.78;;;5.41;74.37
65716;BME280;63484;52.054;8.518;2023-02-10T16:30:50;102460.72;;;5.50;74.20
65716;BME280;63484;52.054;8.518;2023-02-10T16:35:53;102466.13;;;5.31;74.76
65716;BME280;63484;52.054;8.518;2023-02-10T16:40:55;102468.06;;;5.09;75.65
65716;BME280;63484;52.054;8.518;2023-02-10T16:45:57;102462.78;;;5.18;75.50
65716;BME280;63484;52.054;8.518;2023-02-10T16:51:00;102459.25;;;5.24;74.93
65716;BME280;63484;52.054;8.518;2023-02-10T16:56:01;102454.84;;;5.30;75.03
65716;BME280;63484;52.054;8.518;2023-02-10T17:01:03;102457.56;;;5.18;74.33
65716;BME280;63484;52.054;8.518;2023-02-10T17:06:06;102463.84;;;4.96;75.92
65716;BME280;63484;52.054;8.518;2023-02-10T17:11:08;102447.38;;;4.94;75.61
65716;BME280;63484;52.054;8.518;2023-02-10T17:16:21;102444.69;;;5.03;74.94
65716;BME280;63484;52.054;8.518;2023-02-10T17:21:25;102434.31;;;4.99;75.81
65716;BME280;63484;52.054;8.518;2023-02-10T17:26:27;102435.16;;;4.99;75.12
65716;BME280;63484;52.054;8.518;2023-02-10T17:31:31;102431.63;;;5.06;74.94
65716;BME280;63484;52.054;8.518;2023-02-10T17:36:34;102422.75;;;5.24;74.18
65716;BME280;63484;52.054;8.518;2023-02-10T17:41:36;102407.84;;;5.36;73.30
65716;BME280;63484;52.054;8.518;2023-02-10T17:46:37;102413.88;;;5.38;73.92
65716;BME280;63484;52.054;8.518;2023-02-10T17:51:45;102451.19;;;5.45;73.63
65716;BME280;63484;52.054;8.518;2023-02-10T17:56:47;102442.38;;;5.56;73.04
65716;BME280;63484;52.054;8.518;2023-02-10T18:01:48;102434.59;;;5.53;72.97
65716;BME280;63484;52.054;8.518;2023-02-10T18:06:56;102453.91;;;5.37;73.38
65716;BME280;63484;52.054;8.518;2023-02-10T18:11:58;102459.16;;;5.33;74.15
65716;BME280;63484;52.054;8.518;2023-02-10T18:17:02;102445.38;;;5.20;74.54
65716;BME280;63484;52.054;8.518;2023-02-10T18:22:05;102430.59;;;5.21;74.56
65716;BME280;63484;52.054;8.518;2023-02-10T18:27:06;102425.44;;;5.16;75.27
65716;BME280;63484;52.054;8.518;2023-02-10T18:32:08;102423.53;;;5.30;75.22
65716;BME280;63484;52.054;8.518;2023-02-10T18:37:11;102410.81;;;5.03;76.44
65716;BME280;63484;52.054;8.518;2023-02-10T18:42:12;102390.78;;;5.08;76.01
65716;BME280;63484;52.054;8.518;2023-02-10T18:47:14;102391.59;;;5.12;76.23
65716;BME280;63484;52.054;8.518;2023-02-10T18:52:17;102383.63;;;5.25;75.42
65716;BME280;63484;52.054;8.518;2023-02-10T18:57:19;102365.28;;;5.33;75.11
65716;BME280;63484;52.054;8.518;2023-02-10T19:02:20;102388.78;;;5.31;75.41
65716;BME280;63484;52.054;8.518;2023-02-10T19:07:23;102413.28;;;5.15;75.37
65716;BME280;63484;52.054;8.518;2023-02-10T19:12:25;102416.84;;;5.07;76.61
65716;BME280;63484;52.054;8.518;2023-02-10T19:17:27;102424.69;;;5.04;76.85
65716;BME280;63484;52.054;8.518;2023-02-10T19:22:29;102438.50;;;5.13;76.77
65716;BME280;63484;52.054;8.518;2023-02-10T19:27:31;102458.28;;;5.32;76.22
65716;BME280;63484;52.054;8.518;2023-02-10T19:32:32;102468.66;;;5.38;75.88
65716;BME280;63484;52.054;8.518;2023-02-10T19:37:35;102475.53;;;5.45;75.78
65716;BME280;63484;52.054;8.518;2023-02-10T19:42:38;102465.06;;;5.48;76.00
65716;BME280;63484;52.054;8.518;2023-02-10T19:47:40;102454.63;;;5.50;75.39
65716;BME280;63484;52.054;8.518;2023-02-10T19:52:43;102459.00;;;5.49;75.55
65716;BME280;63484;52.054;8.518;2023-02-10T19:57:44;102449.44;;;5.47;75.64
65716;BME280;63484;52.054;8.518;2023-02-10T20:02:46;102425.88;;;5.54;75.83
65716;BME280;63484;52.054;8.518;2023-02-10T20:07:48;102422.53;;;5.43;76.37
65716;BME280;63484;52.054;8.518;2023-02-10T20:12:50;102424.47;;;5.26;77.13
65716;BME280;63484;52.054;8.518;2023-02-10T20:17:51;102416.69;;;5.23;77.68
65716;BME280;63484;52.054;8.518;2023-02-10T20:22:54;102394.91;;;5.27;77.79
65716;BME280;63484;52.054;8.518;2023-02-10T20:27:55;102407.88;;;5.32;77.71
65716;BME280;63484;52.054;8.518;2023-02-10T20:32:57;102415.78;;;5.24;78.00
65716;BME280;63484;52.054;8.518;2023-02-10T20:38:00;102403.56;;;5.31;78.25
65716;BME280;63484;52.054;8.518;2023-02-10T20:43:01;102404.38;;;5.34;77.97
65716;BME280;63484;52.054;8.518;2023-02-10T20:48:03;102402.53;;;5.44;78.07
65716;BME280;63484;52.054;8.518;2023-02-10T20:53:06;102414.63;;;5.48;78.11
65716;BME280;63484;52.054;8.518;2023-02-10T20:58:08;102411.97;;;5.54;77.66
65716;BME280;63484;52.054;8.518;2023-02-10T21:03:10;102409.22;;;5.64;77.64
65716;BME280;63484;52.054;8.518;2023-02-10T21:08:13;102414.50;;;5.60;78.20
65716;BME280;63484;52.054;8.518;2023-02-10T21:13:15;102420.53;;;5.65;77.94
65716;BME280;63484;52.054;8.518;2023-02-10T21:18:16;102419.47;;;5.80;77.58
65716;BME280;63484;52.054;8.518;2023-02-10T21:23:19;102411.78;;;5.71;78.02
65716;BME280;63484;52.054;8.518;2023-02-10T21:28:21;102413.38;;;5.79;78.06
65716;BME280;63484;52.054;8.518;2023-02-10T21:33:23;102399.53;;;5.74;78.90
65716;BME280;63484;52.054;8.518;2023-02-10T21:38:25;102383.66;;;5.92;78.81
65716;BME280;63484;52.054;8.518;2023-02-10T21:43:27;102373.03;;;6.07;77.73
65716;BME280;63484;52.054;8.518;2023-02-10T21:48:28;102386.16;;;6.03;78.10
65716;BME280;63484;52.054;8.518;2023-02-10T21:53:31;102377.47;;;6.01;78.48
65716;BME280;63484;52.054;8.518;2023-02-10T21:58:33;102373.09;;;6.03;78.25
65716;BME280;63484;52.054;8.518;2023-02-10T22:03:34;102379.13;;;6.08;78.57
65716;BME280;63484;52.054;8.518;2023-02-10T22:08:38;102375.75;;;6.00;78.86
65716;BME280;63484;52.054;8.518;2023-02-10T22:13:40;102381.81;;;6.00;79.72
65716;BME280;63484;52.054;8.518;2023-02-10T22:18:42;102377.47;;;6.01;79.81
65716;BME280;63484;52.054;8.518;2023-02-10T22:23:45;102382.63;;;6.05;80.11
65716;BME280;63484;52.054;8.518;2023-02-10T22:28:47;102379.22;;;5.99;80.84
65716;BME280;63484;52.054;8.518;2023-02-10T22:33:49;102384.44;;;6.00;81.36
65716;BME280;63484;52.054;8.518;2023-02-10T22:38:52;102379.19;;;6.02;81.95
65716;BME280;63484;52.054;8.518;2023-02-10T22:43:55;102380.88;;;6.06;81.70
65716;BME280;63484;52.054;8.518;2023-02-10T22:48:57;102376.47;;;6.11;82.29
65716;BME280;63484;52.054;8.518;2023-02-10T22:54:05;102368.69;;;6.05;82.79
65716;BME280;63484;52.054;8.518;2023-02-10T22:59:08;102363.50;;;6.03;83.52
65716;BME280;63484;52.054;8.518;2023-02-10T23:04:11;102349.34;;;6.18;83.41
65716;BME280;63484;52.054;8.518;2023-02-10T23:09:14;102347.53;;;6.23;83.99
65716;BME280;63484;52.054;8.518;2023-02-10T23:14:16;102335.50;;;6.14;85.15
65716;BME280;63484;52.054;8.518;2023-02-10T23:19:18;102329.56;;;6.03;86.17
65716;BME280;63484;52.054;8.518;2023-02-10T23:24:21;102304.09;;;6.19;85.89
65716;BME280;63484;52.054;8.518;2023-02-10T23:29:22;102307.53;;;6.19;86.10
65716;BME280;63484;52.054;8.518;2023-02-10T23:34:24;102300.56;;;6.20;86.38
65716;BME280;63484;52.054;8.518;2023-02-10T23:39:27;102292.63;;;6.26;86.58
65716;BME280;63484;52.054;8.518;2023-02-10T23:44:29;102277.84;;;6.25;86.84
65716;BME280;63484;52.054;8.518;2023-02-10T23:49:30;102285.63;;;6.29;86.74
65716;BME280;63484;52.054;8.518;2023-02-10T23:54:33;102288.25;;;6.28;87.50
65716;BME280;63484;52.054;8.518;2023-02-10T23:59:36;102295.97;;;6.35;87.06
